createdAt,value
2018-05-12T00:00:36.439Z,981.5
2018-05-12T00:01:37.738Z,981.6
2018-05-12T00:02:39.127Z,981.5
2018-05-12T00:03:40.348Z,981.5
2018-05-12T00:04:41.723Z,981.6
2018-05-12T00:05:43.070Z,981.6
2018-05-12T00:06:44.351Z,981.7
2018-05-12T00:07:45.563Z,981.5
2018-05-12T00:08:46.798Z,981.6
2018-05-12T00:09:48.074Z,981.6
2018-05-12T00:10:49.404Z,981.6
2018-05-12T00:11:50.567Z,981.6
2018-05-12T00:12:51.733Z,981.6
2018-05-12T00:13:52.893Z,981.6
2018-05-12T00:14:54.216Z,981.6
2018-05-12T00:15:55.274Z,981.6
2018-05-12T00:16:56.577Z,981.6
2018-05-12T00:17:57.866Z,981.4
2018-05-12T00:18:59.015Z,981.6
2018-05-12T00:20:00.273Z,981.6
2018-05-12T00:21:01.480Z,981.5
2018-05-12T00:22:02.678Z,981.6
2018-05-12T00:23:03.875Z,981.6
2018-05-12T00:24:05.102Z,981.6
2018-05-12T00:25:06.364Z,981.6
2018-05-12T00:26:07.559Z,981.6
2018-05-12T00:27:08.755Z,981.6
2018-05-12T00:28:10.231Z,981.6
2018-05-12T00:29:11.430Z,981.6
2018-05-12T00:30:12.671Z,981.6
2018-05-12T00:31:13.863Z,981.6
2018-05-12T00:32:15.045Z,981.6
2018-05-12T00:33:16.202Z,981.6
2018-05-12T00:34:17.373Z,981.6
2018-05-12T00:35:18.698Z,981.6
2018-05-12T00:36:19.886Z,981.5
2018-05-12T00:37:21.044Z,981.6
2018-05-12T00:38:22.190Z,981.6
2018-05-12T00:39:23.626Z,981.6
2018-05-12T00:40:24.844Z,981.5
2018-05-12T00:41:25.990Z,981.5
2018-05-12T00:42:27.167Z,981.5
2018-05-12T00:43:32.773Z,981.5
2018-05-12T00:44:34.012Z,981.5
2018-05-12T00:45:35.267Z,981.5
2018-05-12T00:46:36.430Z,981.5
2018-05-12T00:47:37.608Z,981.5
2018-05-12T00:48:38.803Z,981.5
2018-05-12T00:49:39.987Z,981.5
2018-05-12T00:50:41.213Z,981.5
2018-05-12T00:51:42.387Z,981.3
2018-05-12T00:52:43.550Z,981.5
2018-05-12T00:53:44.742Z,981.5
2018-05-12T00:54:45.951Z,981.5
2018-05-12T00:55:47.347Z,981.4
2018-05-12T00:56:48.551Z,981.5
2018-05-12T00:57:49.701Z,981.5
2018-05-12T00:58:50.883Z,981.6
2018-05-12T00:59:52.111Z,981.6
2018-05-12T01:00:53.381Z,981.5
2018-05-12T01:01:54.596Z,981.5
2018-05-12T01:02:55.758Z,981.5
2018-05-12T01:03:56.955Z,981.5
2018-05-12T01:04:58.131Z,981.4
2018-05-12T01:06:00.275Z,981.5
2018-05-12T01:07:01.519Z,981.5
2018-05-12T01:08:02.686Z,981.5
2018-05-12T01:09:03.902Z,981.5
2018-05-12T01:10:05.123Z,981.5
2018-05-12T01:11:06.346Z,981.4
2018-05-12T01:12:07.502Z,981.5
2018-05-12T01:13:08.698Z,981.5
2018-05-12T01:14:13.282Z,981.4
2018-05-12T01:15:14.465Z,981.3
2018-05-12T01:16:15.662Z,981.4
2018-05-12T01:17:16.802Z,981.5
2018-05-12T01:18:18.027Z,981.5
2018-05-12T01:19:19.187Z,981.4
2018-05-12T01:20:20.339Z,981.5
2018-05-12T01:21:21.550Z,981.5
2018-05-12T01:22:22.719Z,981.5
2018-05-12T01:23:23.845Z,981.4
2018-05-12T01:24:24.974Z,981.5
2018-05-12T01:25:26.124Z,981.5
2018-05-12T01:26:27.356Z,981.4
2018-05-12T01:27:28.515Z,981.4
2018-05-12T01:28:29.649Z,981.4
2018-05-12T01:29:30.799Z,981.5
2018-05-12T01:30:31.927Z,981.5
2018-05-12T01:31:33.151Z,981.5
2018-05-12T01:32:34.338Z,981.5
2018-05-12T01:33:35.505Z,981.5
2018-05-12T01:34:36.674Z,981.5
2018-05-12T01:35:37.846Z,981.5
2018-05-12T01:36:39.269Z,981.5
2018-05-12T01:37:40.465Z,981.5
2018-05-12T01:38:41.606Z,981.5
2018-05-12T01:39:42.810Z,981.2
2018-05-12T01:40:43.980Z,981.5
2018-05-12T01:41:45.263Z,981.5
2018-05-12T01:42:46.479Z,981.5
2018-05-12T01:43:47.661Z,981.5
2018-05-12T01:44:48.807Z,981.5
2018-05-12T01:45:51.123Z,981.5
2018-05-12T01:46:52.366Z,981.5
2018-05-12T01:47:53.559Z,981.5
2018-05-12T01:48:54.725Z,981.5
2018-05-12T01:49:55.893Z,981.5
2018-05-12T01:50:57.112Z,981.5
2018-05-12T01:51:58.389Z,981.5
2018-05-12T01:52:59.544Z,981.5
2018-05-12T01:54:00.723Z,981.5
2018-05-12T01:55:01.852Z,981.5
2018-05-12T01:56:03.014Z,981.4
2018-05-12T01:57:04.251Z,981.5
2018-05-12T01:58:05.381Z,981.5
2018-05-12T01:59:06.538Z,981.5
2018-05-12T02:00:07.722Z,981.5
2018-05-12T02:01:08.883Z,981.5
2018-05-12T02:02:10.123Z,981.5
2018-05-12T02:03:11.257Z,981.6
2018-05-12T02:04:12.462Z,981.6
2018-05-12T02:05:13.650Z,981.5
2018-05-12T02:06:14.895Z,981.5
2018-05-12T02:07:16.375Z,981.5
2018-05-12T02:08:17.562Z,981.6
2018-05-12T02:09:18.736Z,981.6
2018-05-12T02:10:19.926Z,981.6
2018-05-12T02:11:21.136Z,981.5
2018-05-12T02:12:22.374Z,981.6
2018-05-12T02:13:23.533Z,981.6
2018-05-12T02:14:24.905Z,981.6
2018-05-12T02:15:26.100Z,981.5
2018-05-12T02:16:27.235Z,981.6
2018-05-12T02:17:28.402Z,981.6
2018-05-12T02:18:29.624Z,981.6
2018-05-12T02:19:30.787Z,981.6
2018-05-12T02:20:31.998Z,981.6
2018-05-12T02:21:33.172Z,981.6
2018-05-12T02:22:34.475Z,981.6
2018-05-12T02:23:35.644Z,981.6
2018-05-12T02:24:36.882Z,981.6
2018-05-12T02:25:38.014Z,981.6
2018-05-12T02:26:39.192Z,981.6
2018-05-12T02:27:40.383Z,981.6
2018-05-12T02:28:41.525Z,981.6
2018-05-12T02:29:42.729Z,981.6
2018-05-12T02:30:43.892Z,981.7
2018-05-12T02:31:45.516Z,981.6
2018-05-12T02:32:46.695Z,981.6
2018-05-12T02:33:47.869Z,981.6
2018-05-12T02:34:49.239Z,981.7
2018-05-12T02:35:50.445Z,981.7
2018-05-12T02:36:51.640Z,981.7
2018-05-12T02:37:53.022Z,981.6
2018-05-12T02:38:54.199Z,981.7
2018-05-12T02:39:55.411Z,981.7
2018-05-12T02:40:56.570Z,981.7
2018-05-12T02:41:57.759Z,981.6
2018-05-12T02:42:59.134Z,981.6
2018-05-12T02:44:00.355Z,981.6
2018-05-12T02:45:01.688Z,981.7
2018-05-12T02:46:03.235Z,981.7
2018-05-12T02:47:04.417Z,981.6
2018-05-12T02:48:05.667Z,981.6
2018-05-12T02:49:06.825Z,981.5
2018-05-12T02:50:08.016Z,981.6
2018-05-12T02:51:09.227Z,981.7
2018-05-12T02:52:10.409Z,981.6
2018-05-12T02:53:11.611Z,981.6
2018-05-12T02:54:12.787Z,981.6
2018-05-12T02:55:14.012Z,981.6
2018-05-12T02:56:16.687Z,981.6
2018-05-12T02:57:19.472Z,981.6
2018-05-12T02:58:20.639Z,981.6
2018-05-12T02:59:21.781Z,981.6
2018-05-12T03:00:22.962Z,981.6
2018-05-12T03:01:24.138Z,981.6
2018-05-12T03:02:25.303Z,981.6
2018-05-12T03:03:26.518Z,981.6
2018-05-12T03:04:27.642Z,981.5
2018-05-12T03:05:28.775Z,981.6
2018-05-12T03:06:29.895Z,981.5
2018-05-12T03:07:31.031Z,981.6
2018-05-12T03:08:32.315Z,981.6
2018-05-12T03:09:33.482Z,981.6
2018-05-12T03:10:34.655Z,981.5
2018-05-12T03:11:35.806Z,981.6
2018-05-12T03:12:36.951Z,981.5
2018-05-12T03:13:38.472Z,981.3
2018-05-12T03:14:39.689Z,981.5
2018-05-12T03:15:40.870Z,981.3
2018-05-12T03:16:42.063Z,981.5
2018-05-12T03:17:43.275Z,981.5
2018-05-12T03:18:44.457Z,981.6
2018-05-12T03:19:45.729Z,981.7
2018-05-12T03:20:46.850Z,981.6
2018-05-12T03:21:48.012Z,981.6
2018-05-12T03:22:49.194Z,981.6
2018-05-12T03:23:50.387Z,981.5
2018-05-12T03:24:51.573Z,981.5
2018-05-12T03:25:52.769Z,981.5
2018-05-12T03:26:54.003Z,981.5
2018-05-12T03:27:55.229Z,981.3
2018-05-12T03:28:56.497Z,981.5
2018-05-12T03:29:57.644Z,981.5
2018-05-12T03:30:58.794Z,981.5
2018-05-12T03:31:59.926Z,981.5
2018-05-12T03:33:01.091Z,981.5
2018-05-12T03:34:02.314Z,981.5
2018-05-12T03:35:03.468Z,981.5
2018-05-12T03:36:04.671Z,981.5
2018-05-12T03:37:05.847Z,981.3
2018-05-12T03:38:11.172Z,981.5
2018-05-12T03:39:12.430Z,981.5
2018-05-12T03:40:13.566Z,981.5
2018-05-12T03:41:14.770Z,981.5
2018-05-12T03:42:15.918Z,981.5
2018-05-12T03:43:17.081Z,981.5
2018-05-12T03:44:18.306Z,981.5
2018-05-12T03:45:19.478Z,981.5
2018-05-12T03:46:25.482Z,981.1
2018-05-12T03:47:26.607Z,981.5
2018-05-12T03:48:27.757Z,981.5
2018-05-12T03:49:28.997Z,981.5
2018-05-12T03:50:30.186Z,981.5
2018-05-12T03:51:31.352Z,981.5
2018-05-12T03:52:32.499Z,981.5
2018-05-12T03:53:33.661Z,981.5
2018-05-12T03:54:34.931Z,981.5
2018-05-12T03:55:36.083Z,981.5
2018-05-12T03:56:37.256Z,981.6
2018-05-12T03:57:38.390Z,981.5
2018-05-12T03:58:39.559Z,981.6
2018-05-12T03:59:40.781Z,981.6
2018-05-12T04:00:41.932Z,981.6
2018-05-12T04:01:43.083Z,981.6
2018-05-12T04:02:44.238Z,981.5
2018-05-12T04:03:45.408Z,981.6
2018-05-12T04:04:46.631Z,981.5
2018-05-12T04:05:47.821Z,981.6
2018-05-12T04:06:48.969Z,981.6
2018-05-12T04:07:50.157Z,981.6
2018-05-12T04:08:51.322Z,981.6
2018-05-12T04:09:52.690Z,981.6
2018-05-12T04:10:53.858Z,981.6
2018-05-12T04:11:55.018Z,981.6
2018-05-12T04:12:59.871Z,981.6
2018-05-12T04:14:01.054Z,981.7
2018-05-12T04:15:02.296Z,981.6
2018-05-12T04:16:03.449Z,981.6
2018-05-12T04:17:04.661Z,981.6
2018-05-12T04:18:05.892Z,981.6
2018-05-12T04:19:07.029Z,981.6
2018-05-12T04:20:08.530Z,981.6
2018-05-12T04:21:09.696Z,981.6
2018-05-12T04:22:10.820Z,981.6
2018-05-12T04:23:11.982Z,981.6
2018-05-12T04:24:13.140Z,981.7
2018-05-12T04:25:14.365Z,981.6
2018-05-12T04:26:15.546Z,981.6
2018-05-12T04:27:16.716Z,981.6
2018-05-12T04:28:17.891Z,981.6
2018-05-12T04:29:19.045Z,981.7
2018-05-12T04:30:20.240Z,981.7
2018-05-12T04:31:21.384Z,981.7
2018-05-12T04:32:22.605Z,981.6
2018-05-12T04:33:23.738Z,981.7
2018-05-12T04:34:24.918Z,981.7
2018-05-12T04:35:26.073Z,981.7
2018-05-12T04:36:27.251Z,981.7
2018-05-12T04:37:28.425Z,981.6
2018-05-12T04:38:29.575Z,981.6
2018-05-12T04:39:30.726Z,981.7
2018-05-12T04:40:31.950Z,981.6
2018-05-12T04:41:33.165Z,981.6
2018-05-12T04:42:34.305Z,981.7
2018-05-12T04:43:35.545Z,981.7
2018-05-12T04:44:36.779Z,981.7
2018-05-12T04:45:37.963Z,981.7
2018-05-12T04:46:39.133Z,981.7
2018-05-12T04:47:40.263Z,981.7
2018-05-12T04:48:41.470Z,981.7
2018-05-12T04:49:42.700Z,981.7
2018-05-12T04:50:43.915Z,981.6
2018-05-12T04:51:45.085Z,981.7
2018-05-12T04:52:46.224Z,981.6
2018-05-12T04:53:47.386Z,981.7
2018-05-12T04:54:48.557Z,981.7
2018-05-12T04:55:49.815Z,981.4
2018-05-12T04:56:50.970Z,981.6
2018-05-12T04:57:52.138Z,981.7
2018-05-12T04:58:53.275Z,981.7
2018-05-12T04:59:54.411Z,981.7
2018-05-12T05:00:55.637Z,981.7
2018-05-12T05:01:56.799Z,981.7
2018-05-12T05:02:57.970Z,981.7
2018-05-12T05:03:59.114Z,981.7
2018-05-12T05:05:00.240Z,981.7
2018-05-12T05:06:01.442Z,981.5
2018-05-12T05:07:02.610Z,981.7
2018-05-12T05:08:03.761Z,981.7
2018-05-12T05:09:04.926Z,981.7
2018-05-12T05:10:06.107Z,981.7
2018-05-12T05:11:07.340Z,981.7
2018-05-12T05:12:08.555Z,981.7
2018-05-12T05:13:09.676Z,981.7
2018-05-12T05:14:10.805Z,981.7
2018-05-12T05:15:11.956Z,981.8
2018-05-12T05:16:13.136Z,981.8
2018-05-12T05:17:15.203Z,981.8
2018-05-12T05:18:16.343Z,981.8
2018-05-12T05:19:17.484Z,981.8
2018-05-12T05:20:18.640Z,981.7
2018-05-12T05:21:19.889Z,981.7
2018-05-12T05:22:21.039Z,981.7
2018-05-12T05:23:22.194Z,981.8
2018-05-12T05:24:23.664Z,981.8
2018-05-12T05:25:24.822Z,981.8
2018-05-12T05:26:26.120Z,981.8
2018-05-12T05:27:27.291Z,981.8
2018-05-12T05:28:28.413Z,981.8
2018-05-12T05:29:29.555Z,981.8
2018-05-12T05:30:30.720Z,981.8
2018-05-12T05:31:31.917Z,981.9
2018-05-12T05:32:33.082Z,981.9
2018-05-12T05:33:34.213Z,981.9
2018-05-12T05:34:35.344Z,982.1
2018-05-12T05:35:36.509Z,982.2
2018-05-12T05:36:42.471Z,982.3
2018-05-12T05:37:43.841Z,982.3
2018-05-12T05:38:44.977Z,982.5
2018-05-12T05:39:46.204Z,982.6
2018-05-12T05:40:47.375Z,982.8
2018-05-12T05:41:48.571Z,982.8
2018-05-12T05:42:49.751Z,982.8
2018-05-12T05:43:50.898Z,982.8
2018-05-12T05:44:52.067Z,982.7
2018-05-12T05:45:53.249Z,983
2018-05-12T05:46:54.411Z,983
2018-05-12T05:47:55.630Z,983.1
2018-05-12T05:48:56.778Z,983.2
2018-05-12T05:49:57.949Z,983.3
2018-05-12T05:50:59.114Z,983.2
2018-05-12T05:52:00.319Z,983.2
2018-05-12T05:53:02.959Z,983.2
2018-05-12T05:54:04.112Z,983.2
2018-05-12T05:55:05.333Z,983.3
2018-05-12T05:56:06.490Z,983
2018-05-12T05:57:07.659Z,983.2
2018-05-12T05:58:08.849Z,983.3
2018-05-12T05:59:09.997Z,982.8
2018-05-12T06:00:11.244Z,983.2
2018-05-12T06:01:12.391Z,983.1
2018-05-12T06:02:13.570Z,983.3
2018-05-12T06:03:14.718Z,983.3
2018-05-12T06:04:15.932Z,983.2
2018-05-12T06:08:17.186Z,983.2
2018-05-12T06:09:18.412Z,983
2018-05-12T06:10:19.626Z,983
2018-05-12T06:11:20.785Z,982.6
2018-05-12T06:12:21.945Z,982.7
2018-05-12T06:13:23.190Z,982.7
2018-05-12T06:14:24.334Z,982.7
2018-05-12T06:15:25.501Z,983
2018-05-12T06:16:26.681Z,982.9
2018-05-12T06:17:27.805Z,983
2018-05-12T06:18:28.978Z,982.9
2018-05-12T06:19:30.114Z,983
2018-05-12T06:20:31.274Z,983
2018-05-12T06:21:32.418Z,983.1
2018-05-12T06:22:33.596Z,983.1
2018-05-12T06:23:37.206Z,983.2
2018-05-12T06:24:38.437Z,983.2
2018-05-12T06:25:39.619Z,982.8
2018-05-12T06:26:41.944Z,982.3
2018-05-12T06:27:43.110Z,982.5
2018-05-12T06:28:44.933Z,982.8
2018-05-12T06:29:48.800Z,982.7
2018-05-12T06:30:49.962Z,982.7
2018-05-12T06:31:51.136Z,982.5
2018-05-12T06:32:52.422Z,982.5
2018-05-12T06:33:53.668Z,982.6
2018-05-12T06:34:54.851Z,982.6
2018-05-12T06:35:56.055Z,982.9
2018-05-12T06:36:57.330Z,982.9
2018-05-12T06:37:58.599Z,983.1
2018-05-12T06:38:59.798Z,983
2018-05-12T06:40:03.660Z,983.1
2018-05-12T06:41:04.804Z,983.4
2018-05-12T06:42:06.058Z,983.5
2018-05-12T06:43:07.289Z,983.5
2018-05-12T06:44:08.555Z,983.3
2018-05-12T06:45:09.757Z,983.3
2018-05-12T06:46:10.963Z,983.8
2018-05-12T06:47:12.173Z,983.7
2018-05-12T06:48:13.320Z,983.5
2018-05-12T06:49:14.582Z,983.3
2018-05-12T06:50:15.777Z,983.6
2018-05-12T06:51:16.937Z,983.8
2018-05-12T06:52:20.263Z,983.8
2018-05-12T06:53:21.418Z,983
2018-05-12T06:54:26.890Z,982.9
2018-05-12T06:55:28.090Z,982.5
2018-05-12T06:56:29.301Z,982.8
2018-05-12T06:57:30.664Z,982.7
2018-05-12T06:58:31.910Z,983
2018-05-12T06:59:33.191Z,982.7
2018-05-12T07:00:34.470Z,982.8
2018-05-12T07:01:35.643Z,982.9
2018-05-12T07:02:36.849Z,982.7
2018-05-12T07:03:39.370Z,982.7
2018-05-12T07:04:40.657Z,982.9
2018-05-12T07:05:41.920Z,982.8
2018-05-12T07:06:43.166Z,982.7
2018-05-12T07:07:44.517Z,982.7
2018-05-12T07:08:46.300Z,982.7
2018-05-12T07:09:47.987Z,982.7
2018-05-12T07:10:49.213Z,982.6
2018-05-12T07:11:50.402Z,982.7
2018-05-12T07:12:51.549Z,982.7
2018-05-12T07:13:52.730Z,982.7
2018-05-12T07:14:54.045Z,982.8
2018-05-12T07:15:55.220Z,982.8
2018-05-12T07:16:56.482Z,983
2018-05-12T07:18:05.726Z,983
2018-05-12T07:19:07.012Z,983.1
2018-05-12T07:20:08.557Z,983.1
2018-05-12T07:21:09.751Z,983
2018-05-12T07:22:10.926Z,983.1
2018-05-12T07:23:12.138Z,983.3
2018-05-12T07:24:13.367Z,983.1
2018-05-12T07:25:14.666Z,983.1
2018-05-12T07:26:19.998Z,983.1
2018-05-12T07:27:21.358Z,983.1
2018-05-12T07:28:23.951Z,983.1
2018-05-12T07:29:25.174Z,983.2
2018-05-12T07:30:26.492Z,983.6
2018-05-12T07:31:27.806Z,983.1
2018-05-12T07:32:28.996Z,982.9
2018-05-12T07:33:30.258Z,982.9
2018-05-12T07:34:31.479Z,983
2018-05-12T07:35:32.714Z,983.3
2018-05-12T07:36:33.934Z,983.2
2018-05-12T07:37:37.232Z,983
2018-05-12T07:38:38.529Z,983
2018-05-12T07:39:39.922Z,983.2
2018-05-12T07:40:41.223Z,983.2
2018-05-12T07:41:42.689Z,983.2
2018-05-12T07:42:44.086Z,983.2
2018-05-12T07:43:45.412Z,983.1
2018-05-12T07:44:48.764Z,983.1
2018-05-12T07:45:51.625Z,983.3
2018-05-12T07:46:52.918Z,983.2
2018-05-12T07:47:54.203Z,983
2018-05-12T07:48:55.514Z,983.1
2018-05-12T07:49:56.957Z,983
2018-05-12T07:50:58.608Z,982.9
2018-05-12T07:51:59.770Z,983
2018-05-12T07:53:00.944Z,983.2
2018-05-12T07:54:02.355Z,983.5
2018-05-12T07:55:03.566Z,983.3
2018-05-12T07:56:04.881Z,983.1
2018-05-12T07:57:07.407Z,983.1
2018-05-12T07:58:08.717Z,983.2
2018-05-12T07:59:10.006Z,983.1
2018-05-12T08:00:11.802Z,983.1
2018-05-12T08:01:13.214Z,983
2018-05-12T08:02:17.565Z,982.8
2018-05-12T08:03:18.863Z,983
2018-05-12T08:04:20.201Z,983
2018-05-12T08:05:21.448Z,983
2018-05-12T08:06:22.867Z,982.9
2018-05-12T08:07:24.091Z,983.1
2018-05-12T08:08:25.558Z,983
2018-05-12T08:09:26.874Z,983
2018-05-12T08:10:28.217Z,983.1
2018-05-12T08:11:29.465Z,983.1
2018-05-12T08:12:32.139Z,983.1
2018-05-12T08:13:33.788Z,983.2
2018-05-12T08:14:37.728Z,983.2
2018-05-12T08:15:38.999Z,983.3
2018-05-12T08:16:40.725Z,983.1
2018-05-12T08:17:42.227Z,983.8
2018-05-12T08:18:43.525Z,983.3
2018-05-12T08:19:44.798Z,983.2
2018-05-12T08:20:46.278Z,983
2018-05-12T08:21:49.761Z,983
2018-05-12T08:22:50.938Z,982.9
2018-05-12T08:23:55.222Z,982.8
2018-05-12T08:24:56.566Z,982.6
2018-05-12T08:25:58.028Z,982.8
2018-05-12T08:26:59.353Z,982.8
2018-05-12T08:28:00.953Z,982.8
2018-05-12T08:29:02.379Z,982.7
2018-05-12T08:30:06.716Z,982.9
2018-05-12T08:31:08.306Z,983.1
2018-05-12T08:32:09.722Z,983
2018-05-12T08:33:11.129Z,983.1
2018-05-12T08:34:12.397Z,983
2018-05-12T08:35:13.881Z,982.9
2018-05-12T08:36:15.162Z,982.8
2018-05-12T08:37:16.718Z,982.8
2018-05-12T08:38:18.277Z,982.7
2018-05-12T08:39:28.399Z,982.7
2018-05-12T08:40:30.055Z,982.4
2018-05-12T08:41:34.455Z,982.9
2018-05-12T08:42:36.473Z,982.6
2018-05-12T08:43:37.890Z,982.7
2018-05-12T08:44:41.046Z,982.8
2018-05-12T08:45:42.507Z,982.7
2018-05-12T08:46:43.923Z,982.8
2018-05-12T08:47:45.623Z,982.9
2018-05-12T08:48:47.070Z,982.9
2018-05-12T08:49:48.769Z,982.9
2018-05-12T08:50:50.294Z,982.8
2018-05-12T08:51:51.661Z,982.6
2018-05-12T08:52:53.123Z,982.5
2018-05-12T08:53:54.596Z,983.1
2018-05-12T08:55:01.141Z,983.4
2018-05-12T08:56:06.970Z,983.5
2018-05-12T08:57:08.499Z,983.2
2018-05-12T08:58:10.032Z,982.8
2018-05-12T08:59:11.303Z,982.6
2018-05-12T09:00:12.527Z,983.4
2018-05-12T09:01:16.022Z,982.9
2018-05-12T09:02:25.453Z,982.5
2018-05-12T09:03:26.855Z,982.1
2018-05-12T09:04:28.361Z,982.1
2018-05-12T09:05:29.847Z,982
2018-05-12T09:06:32.946Z,982
2018-05-12T09:07:34.236Z,982
2018-05-12T09:08:35.558Z,982.2
2018-05-12T09:09:36.965Z,982
2018-05-12T09:10:38.553Z,982.6
2018-05-12T09:11:39.786Z,982.9
2018-05-12T09:12:41.164Z,982.9
2018-05-12T09:13:43.251Z,982.6
2018-05-12T09:14:44.575Z,982.3
2018-05-12T09:15:46.343Z,982.2
2018-05-12T09:16:47.936Z,982.2
2018-05-12T09:17:49.284Z,982.8
2018-05-12T09:18:55.874Z,983.1
2018-05-12T09:19:57.362Z,982.4
2018-05-12T09:20:58.725Z,982.2
2018-05-12T09:21:59.979Z,982.4
2018-05-12T09:23:01.505Z,982.8
2018-05-12T09:24:02.858Z,982.6
2018-05-12T09:25:04.406Z,982.3
2018-05-12T09:26:13.482Z,982.2
2018-05-12T09:27:14.833Z,982.1
2018-05-12T09:28:16.358Z,981.9
2018-05-12T09:29:17.648Z,982
2018-05-12T09:30:18.990Z,982.4
2018-05-12T09:31:22.989Z,982.7
2018-05-12T09:32:25.831Z,982.6
2018-05-12T09:33:27.448Z,982.3
2018-05-12T09:34:28.874Z,982.1
2018-05-12T09:35:30.127Z,982.1
2018-05-12T09:36:31.678Z,982.1
2018-05-12T09:37:33.015Z,983
2018-05-12T09:38:34.377Z,982.3
2018-05-12T09:39:35.682Z,982.1
2018-05-12T09:40:36.975Z,981.9
2018-05-12T09:41:38.218Z,982
2018-05-12T09:42:39.607Z,981.9
2018-05-12T09:43:40.785Z,982.1
2018-05-12T09:44:42.198Z,981.9
2018-05-12T09:45:43.871Z,982.1
2018-05-12T09:46:45.206Z,981.9
2018-05-12T09:47:46.640Z,981.8
2018-05-12T09:48:48.043Z,981.8
2018-05-12T09:49:49.522Z,981.9
2018-05-12T09:50:53.675Z,981.8
2018-05-12T09:51:54.930Z,982.2
2018-05-12T09:52:56.324Z,982.5
2018-05-12T09:53:57.608Z,982.4
2018-05-12T09:54:58.850Z,981.9
2018-05-12T09:56:00.067Z,981.8
2018-05-12T09:57:01.337Z,981.8
2018-05-12T09:58:02.569Z,981.7
2018-05-12T09:59:04.102Z,981.6
2018-05-12T10:00:07.682Z,981.6
2018-05-12T10:01:14.402Z,981.5
2018-05-12T10:02:15.690Z,981.6
2018-05-12T10:03:17.103Z,981.6
2018-05-12T10:04:18.383Z,981.9
2018-05-12T10:05:19.892Z,981.6
2018-05-12T10:06:21.245Z,981.6
2018-05-12T10:07:22.468Z,981.6
2018-05-12T10:08:23.697Z,981.5
2018-05-12T10:09:27.956Z,981.5
2018-05-12T10:10:29.483Z,981.7
2018-05-12T10:11:30.779Z,981.9
2018-05-12T10:12:32.147Z,981.7
2018-05-12T10:13:33.407Z,981.5
2018-05-12T10:14:34.666Z,981.3
2018-05-12T10:15:36.088Z,981.4
2018-05-12T10:16:42.346Z,981.3
2018-05-12T10:17:46.518Z,981.4
2018-05-12T10:18:48.973Z,981.2
2018-05-12T10:19:50.221Z,981.7
2018-05-12T10:20:51.532Z,981.6
2018-05-12T10:21:52.812Z,981.6
2018-05-12T10:22:54.015Z,981.7
2018-05-12T10:23:55.233Z,981.5
2018-05-12T10:24:56.617Z,981.5
2018-05-12T10:25:58.119Z,981.3
2018-05-12T10:27:11.043Z,981.2
2018-05-12T10:28:12.602Z,981.1
2018-05-12T10:29:14.079Z,981.1
2018-05-12T10:30:15.784Z,981.1
2018-05-12T10:31:18.045Z,981.1
2018-05-12T10:32:19.375Z,981
2018-05-12T10:33:20.732Z,981.1
2018-05-12T10:34:22.179Z,981
2018-05-12T10:35:23.579Z,981.2
2018-05-12T10:36:25.144Z,981.2
2018-05-12T10:37:26.647Z,981
2018-05-12T10:38:29.156Z,981.2
2018-05-12T10:39:30.588Z,981.1
2018-05-12T10:40:31.954Z,980.9
2018-05-12T10:41:33.533Z,980.6
2018-05-12T10:42:35.073Z,981.1
2018-05-12T10:43:36.504Z,981.1
2018-05-12T10:44:39.564Z,980.9
2018-05-12T10:45:42.575Z,980.8
2018-05-12T10:46:44.269Z,981
2018-05-12T10:47:45.607Z,980.8
2018-05-12T10:48:48.070Z,980.9
2018-05-12T10:49:49.490Z,981
2018-05-12T10:50:50.923Z,980.9
2018-05-12T10:51:52.352Z,980.7
2018-05-12T10:52:53.688Z,980.3
2018-05-12T10:54:02.355Z,980.9
2018-05-12T10:55:03.752Z,980.9
2018-05-12T10:56:05.092Z,980.9
2018-05-12T10:57:12.007Z,980.9
2018-05-12T10:58:13.383Z,980.9
2018-05-12T10:59:16.794Z,980.7
2018-05-12T11:00:26.164Z,981
2018-05-12T11:01:27.506Z,980.8
2018-05-12T11:02:28.872Z,980.9
2018-05-12T11:03:31.541Z,980.8
2018-05-12T11:04:33.259Z,980.7
2018-05-12T11:05:35.170Z,980.7
2018-05-12T11:06:36.805Z,980.8
2018-05-12T11:07:38.150Z,980.8
2018-05-12T11:08:39.401Z,980.8
2018-05-12T11:09:40.671Z,980.5
2018-05-12T11:10:42.095Z,980.7
2018-05-12T11:11:44.912Z,980.7
2018-05-12T11:12:47.208Z,980.6
2018-05-12T11:13:48.645Z,980.7
2018-05-12T11:14:50.073Z,980.6
2018-05-12T11:15:51.518Z,980.7
2018-05-12T11:16:53.090Z,980.6
2018-05-12T11:17:54.469Z,980.6
2018-05-12T11:18:55.769Z,980.5
2018-05-12T11:19:57.370Z,980.5
2018-05-12T11:20:58.648Z,980.7
2018-05-12T11:22:00.076Z,980.7
2018-05-12T11:23:01.280Z,980.5
2018-05-12T11:24:02.673Z,980.6
2018-05-12T11:25:05.598Z,980.4
2018-05-12T11:26:06.912Z,980.6
2018-05-12T11:27:11.043Z,980.6
2018-05-12T11:28:13.676Z,980.5
2018-05-12T11:29:16.721Z,980.5
2018-05-12T11:30:18.105Z,980.3
2018-05-12T11:31:20.426Z,980.3
2018-05-12T11:32:24.655Z,980.4
2018-05-12T11:33:26.479Z,980.4
2018-05-12T11:34:28.215Z,980.3
2018-05-12T11:35:29.813Z,980.3
2018-05-12T11:36:31.516Z,980.1
2018-05-12T11:37:33.376Z,980.2
2018-05-12T11:38:36.240Z,980.3
2018-05-12T11:39:37.540Z,980.2
2018-05-12T11:40:38.980Z,980.3
2018-05-12T11:41:40.297Z,980.1
2018-05-12T11:42:41.668Z,980.1
2018-05-12T11:43:43.178Z,980.3
2018-05-12T11:44:44.568Z,980.1
2018-05-12T11:45:46.466Z,980.2
2018-05-12T11:46:51.069Z,980
2018-05-12T11:47:52.403Z,980.1
2018-05-12T11:48:53.796Z,980.2
2018-05-12T11:49:56.474Z,980.2
2018-05-12T11:50:58.083Z,980.3
2018-05-12T11:51:59.620Z,980.1
2018-05-12T11:53:01.451Z,980
2018-05-12T11:54:02.777Z,980.1
2018-05-12T11:55:06.705Z,980
2018-05-12T11:56:08.147Z,979.9
2018-05-12T11:57:10.525Z,980.1
2018-05-12T11:58:11.918Z,980.1
2018-05-12T11:59:13.372Z,980
2018-05-12T12:00:15.051Z,980.2
2018-05-12T12:01:16.344Z,980.1
2018-05-12T12:02:18.289Z,979.8
2018-05-12T12:03:19.768Z,980.1
2018-05-12T12:04:21.111Z,980.2
2018-05-12T12:05:23.253Z,980.1
2018-05-12T12:06:25.384Z,980
2018-05-12T12:07:26.791Z,980
2018-05-12T12:08:28.068Z,980.1
2018-05-12T12:09:29.537Z,980
2018-05-12T12:10:30.831Z,980.1
2018-05-12T12:11:50.494Z,980.1
2018-05-12T12:12:52.033Z,980.1
2018-05-12T12:13:53.392Z,980.1
2018-05-12T12:14:54.887Z,979.8
2018-05-12T12:15:56.193Z,979.9
2018-05-12T12:16:58.052Z,980.1
2018-05-12T12:17:59.400Z,980.1
2018-05-12T12:19:03.733Z,980
2018-05-12T12:20:07.133Z,980
2018-05-12T12:21:08.396Z,980
2018-05-12T12:22:09.888Z,980
2018-05-12T12:23:11.461Z,979.9
2018-05-12T12:24:13.015Z,979.7
2018-05-12T12:25:14.941Z,980.1
2018-05-12T12:26:16.364Z,980
2018-05-12T12:27:17.824Z,980
2018-05-12T12:28:19.292Z,979.7
2018-05-12T12:29:20.606Z,979.9
2018-05-12T12:30:22.094Z,980
2018-05-12T12:31:23.679Z,980
2018-05-12T12:32:28.505Z,979.8
2018-05-12T12:33:29.972Z,979.9
2018-05-12T12:34:31.380Z,979.8
2018-05-12T12:35:32.854Z,980
2018-05-12T12:36:34.364Z,980
2018-05-12T12:37:46.271Z,979.9
2018-05-12T12:38:47.686Z,979.9
2018-05-12T12:39:50.212Z,980
2018-05-12T12:40:51.665Z,980.1
2018-05-12T12:41:53.460Z,980.1
2018-05-12T12:42:56.178Z,980.1
2018-05-12T12:43:58.104Z,980
2018-05-12T12:44:59.640Z,980
2018-05-12T12:46:01.333Z,980
2018-05-12T12:47:02.808Z,979.9
2018-05-12T12:48:14.586Z,980
2018-05-12T12:49:15.983Z,980.1
2018-05-12T12:50:17.381Z,979.9
2018-05-12T12:51:18.882Z,979.9
2018-05-12T12:52:20.430Z,980
2018-05-12T12:53:21.938Z,979.9
2018-05-12T12:54:23.368Z,979.9
2018-05-12T12:55:24.740Z,979.7
2018-05-12T12:56:26.278Z,979.6
2018-05-12T12:57:27.975Z,979.5
2018-05-12T12:58:29.232Z,979.7
2018-05-12T12:59:30.739Z,979.8
2018-05-12T13:00:32.347Z,979.8
2018-05-12T13:01:33.822Z,979.5
2018-05-12T13:02:35.383Z,979.7
2018-05-12T13:03:36.862Z,979.6
2018-05-12T13:04:38.196Z,979.7
2018-05-12T13:05:42.098Z,979.8
2018-05-12T13:06:43.472Z,979.7
2018-05-12T13:07:44.736Z,979.6
2018-05-12T13:08:46.064Z,979.7
2018-05-12T13:09:49.059Z,979.7
2018-05-12T13:10:50.436Z,979.7
2018-05-12T13:11:51.787Z,979.7
2018-05-12T13:12:53.238Z,979.7
2018-05-12T13:13:54.631Z,979.6
2018-05-12T13:14:55.942Z,979.6
2018-05-12T13:15:57.359Z,979.5
2018-05-12T13:16:58.798Z,979.7
2018-05-12T13:18:03.846Z,979.6
2018-05-12T13:19:09.667Z,979.6
2018-05-12T13:20:11.033Z,979.6
2018-05-12T13:21:12.470Z,979.4
2018-05-12T13:22:13.920Z,979.5